Time;durP1;ratioP1;P1;durP2;ratioP2;P2;SDS_P1;SDS_P2;PMS_P1;PMS_P2;Temp;Humidity;BMP_temperature;BMP_pressure;BME280_temperature;BME280_humidity;BME280_pressure;Samples;Min_cycle;Max_cycle;Signal;HPM_P1;HPM_P2
2021/05/14 00:02:39;;;;;;;;;;;10.30;99.90;;;8.02;98.89;94941.53;10304202;28;2084;-83
2021/05/14 00:07:42;;;;;;;;;;;9.10;99.90;;;7.99;98.78;94944.75;10288417;28;2213;-84
2021/05/14 00:12:45;;;;;;;;;;;9.10;99.90;;;8.02;99.46;94942.34;10313232;28;1922;-80
2021/05/14 00:17:47;;;;;;;;;;;9.10;99.90;;;7.97;98.81;94947.72;10291354;28;2075;-83
2021/05/14 00:22:51;;;;;;;;;;;10.20;99.90;;;7.99;98.47;94945.56;10281755;28;2022;-84
2021/05/14 00:27:54;;;;;;;;;;;9.10;99.90;;;7.99;98.55;94940.22;10286839;28;2096;-83
2021/05/14 00:32:56;;;;;;;;;;;9.90;99.90;;;8.01;98.35;94946.06;10299340;28;1911;-83
2021/05/14 00:37:59;;;;;;;;;;;10.50;99.90;;;7.98;97.86;94938.59;10295647;28;2068;-85
2021/05/14 00:43:02;;;;;;;;;;;9.30;99.90;;;7.99;97.76;94940.22;10288930;28;1750;-82
2021/05/14 00:48:05;;;;;;;;;;;9.10;99.90;;;7.92;96.54;94939.72;10303795;28;1780;-83
2021/05/14 00:53:08;;;;;;;;;;;9.10;99.90;;;7.85;97.15;94940.03;10295507;28;2108;-82
2021/05/14 00:58:10;;;;;;;;;;;10.30;99.90;;;7.83;97.39;94941.38;10293932;28;1832;-79
2021/05/14 01:03:14;;;;;;;;;;;8.90;99.90;;;7.75;97.31;94933.91;10297192;28;1534;-80
2021/05/14 01:08:17;;;;;;;;;;;8.90;99.90;;;7.68;96.66;94941.44;10285469;28;1912;-83
2021/05/14 01:13:20;;;;;;;;;;;10.20;99.90;;;7.61;95.94;94943.63;10301198;28;1906;-83
2021/05/14 01:18:26;;;;;;;;;;;8.80;99.90;;;7.51;96.46;94939.13;10308545;28;1755;-81
2021/05/14 01:23:29;;;;;;;;;;;9.90;99.90;;;7.49;94.85;94941.28;10286142;28;1764;-83
2021/05/14 01:28:32;;;;;;;;;;;10.10;99.90;;;7.46;94.25;94936.47;10289702;28;1258;-83
2021/05/14 01:33:36;;;;;;;;;;;8.60;99.90;;;7.46;95.25;94939.97;10300968;28;2010;-79
2021/05/14 01:38:40;;;;;;;;;;;10.00;99.90;;;7.52;94.60;94941.53;10293942;28;2005;-82
2021/05/14 01:43:43;;;;;;;;;;;8.60;99.90;;;7.52;94.75;94941.53;10316947;28;1007;-84
2021/05/14 01:48:46;;;;;;;;;;;10.00;99.90;;;7.56;94.04;94941.78;10292925;28;1806;-84
2021/05/14 01:53:49;;;;;;;;;;;9.00;99.90;;;7.55;93.05;94935.63;10303868;28;1981;-81
2021/05/14 01:58:52;;;;;;;;;;;10.00;99.90;;;7.38;92.32;94934.34;10280215;28;2151;-81
2021/05/14 02:03:55;;;;;;;;;;;8.60;99.90;;;7.29;92.31;94936.81;10295802;28;2016;-81
2021/05/14 02:08:57;;;;;;;;;;;8.80;99.90;;;7.16;93.20;94942.72;10291130;28;2577;-81
2021/05/14 02:14:00;;;;;;;;;;;9.70;99.90;;;6.99;93.13;94943.84;10285642;28;2096;-83
2021/05/14 02:19:02;;;;;;;;;;;8.80;99.90;;;6.80;94.02;94950.81;10291815;28;2405;-82
2021/05/14 02:24:05;;;;;;;;;;;9.00;99.90;;;6.68;94.23;94947.63;10288960;28;1867;-83
2021/05/14 02:29:08;;;;;;;;;;;9.30;99.90;;;6.55;95.32;94948.16;10293603;28;1998;-83
2021/05/14 02:34:11;;;;;;;;;;;8.90;99.90;;;6.48;95.63;94951.91;10321164;28;1914;-81
2021/05/14 02:39:14;;;;;;;;;;;8.70;99.90;;;6.41;96.01;94939.91;10314961;28;1774;-82
2021/05/14 02:44:17;;;;;;;;;;;8.50;99.90;;;6.39;95.55;94953.53;10313113;28;2053;-80
2021/05/14 02:49:20;;;;;;;;;;;7.60;99.90;;;6.31;94.67;94947.94;10326936;28;2081;-83
2021/05/14 02:54:23;;;;;;;;;;;8.40;99.90;;;6.33;93.84;94941.25;10316974;28;2139;-81
2021/05/14 02:59:25;;;;;;;;;;;7.50;99.90;;;6.15;95.14;94947.09;10289083;28;2122;-81
2021/05/14 03:04:28;;;;;;;;;;;8.50;99.90;;;6.23;95.33;94946.56;10304723;28;2225;-82
2021/05/14 03:09:31;;;;;;;;;;;8.10;99.90;;;6.14;94.19;94948.16;10280267;28;2020;-81
2021/05/14 03:14:34;;;;;;;;;;;7.30;99.90;;;6.13;95.11;94952.72;10301625;28;2412;-82
2021/05/14 03:19:37;;;;;;;;;;;7.30;99.90;;;6.07;94.98;94948.44;10301038;28;2086;-83
2021/05/14 03:24:40;;;;;;;;;;;7.30;99.90;;;6.10;94.14;94947.88;10289985;28;2088;-83
2021/05/14 03:29:43;;;;;;;;;;;7.90;99.90;;;5.99;93.84;94948.97;10308234;28;1697;-82
2021/05/14 03:34:45;;;;;;;;;;;8.10;99.90;;;5.96;93.80;94952.16;10286798;28;2229;-84
2021/05/14 03:39:52;;;;;;;;;;;7.10;99.90;;;5.96;93.59;94952.94;10308072;28;1990;-83
2021/05/14 03:44:56;;;;;;;;;;;8.80;99.90;;;5.88;93.85;94958.78;10295971;28;1548;-82
2021/05/14 03:49:58;;;;;;;;;;;7.00;99.90;;;5.84;93.92;94955.03;10294147;28;1356;-81
2021/05/14 03:55:02;;;;;;;;;;;7.90;99.90;;;5.77;93.90;94959.81;10305906;28;2001;-82
2021/05/14 04:00:04;;;;;;;;;;;7.80;99.90;;;5.79;94.02;94964.88;10308908;28;1741;-82
2021/05/14 04:05:07;;;;;;;;;;;6.90;99.90;;;5.85;94.15;94958.47;10280023;28;1869;-82
2021/05/14 04:10:14;;;;;;;;;;;7.60;99.90;;;5.85;94.27;94961.97;10284671;28;2229;-80
2021/05/14 04:15:22;;;;;;;;;;;7.90;99.90;;;5.85;94.47;94959.31;10292692;28;1895;-82
2021/05/14 04:20:25;;;;;;;;;;;7.80;99.90;;;6.02;94.25;94960.97;10296322;28;2116;-80
2021/05/14 04:25:27;;;;;;;;;;;8.40;99.90;;;6.25;93.88;94955.13;10298492;28;1334;-81
2021/05/14 04:30:31;;;;;;;;;;;8.30;99.90;;;6.73;91.82;94956.44;10295247;28;1556;-83
2021/05/14 04:35:34;;;;;;;;;;;7.60;99.90;;;7.25;87.67;94951.78;10332049;28;2140;-81
2021/05/14 04:40:36;;;;;;;;;;;9.80;99.90;;;7.72;85.17;94953.22;10322532;28;1834;-81
2021/05/14 04:45:39;;;;;;;;;;;9.80;99.90;;;8.01;82.69;94947.94;10307244;28;1676;-81
2021/05/14 04:50:42;;;;;;;;;;;8.90;99.90;;;8.31;81.88;94947.75;10309542;28;1661;-81
2021/05/14 04:55:44;;;;;;;;;;;10.10;99.90;;;8.62;80.34;94948.34;10297918;28;2101;-83
2021/05/14 05:00:47;;;;;;;;;;;9.60;99.90;;;8.99;77.78;94941.59;10313272;28;1889;-82
2021/05/14 05:05:51;;;;;;;;;;;9.90;99.90;;;9.19;76.01;94930.63;10308442;28;1908;-81
2021/05/14 05:10:53;;;;;;;;;;;10.10;99.90;;;9.61;74.42;94931.78;10320667;28;1956;-82
2021/05/14 05:15:56;;;;;;;;;;;10.50;99.90;;;9.92;73.29;94936.72;10309167;28;1902;-80
2021/05/14 05:20:58;;;;;;;;;;;10.90;99.90;;;10.09;72.91;94947.75;10288419;28;2157;-82
2021/05/14 05:26:01;;;;;;;;;;;10.90;99.90;;;10.41;70.96;94943.56;10311429;28;1817;-80
2021/05/14 05:31:03;;;;;;;;;;;11.30;99.90;;;10.39;70.95;94956.50;10292457;28;1754;-82
2021/05/14 05:36:06;;;;;;;;;;;11.50;99.90;;;10.70;69.67;94952.25;10324508;28;1950;-80
2021/05/14 05:41:08;;;;;;;;;;;11.70;99.90;;;10.94;68.69;94954.81;10305741;28;1954;-81
2021/05/14 05:46:11;;;;;;;;;;;11.90;99.90;;;10.91;67.95;94962.66;10292891;28;1753;-80
2021/05/14 05:51:13;;;;;;;;;;;12.10;99.90;;;11.21;65.82;94962.13;10304877;28;1332;-82
2021/05/14 05:56:16;;;;;;;;;;;12.20;99.90;;;11.37;66.43;94960.72;10287951;28;1969;-81
2021/05/14 06:01:19;;;;;;;;;;;12.40;99.90;;;11.88;64.82;94969.72;10299433;28;2100;-81
2021/05/14 06:06:22;;;;;;;;;;;12.70;99.90;;;11.80;65.47;94970.41;10305865;28;1963;-83
2021/05/14 06:11:24;;;;;;;;;;;12.90;99.90;;;11.87;63.41;94968.94;10308001;28;2039;-80
2021/05/14 06:16:27;;;;;;;;;;;12.90;99.90;;;12.23;63.21;94962.78;10299566;28;2042;-81
2021/05/14 06:21:31;;;;;;;;;;;13.10;99.90;;;12.43;63.68;94973.09;10293434;28;1657;-79
2021/05/14 06:26:33;;;;;;;;;;;13.40;99.90;;;12.34;61.87;94977.63;10281510;28;2015;-81
2021/05/14 06:31:36;;;;;;;;;;;13.50;99.90;;;12.44;62.92;94976.59;10289993;28;1904;-80
2021/05/14 06:36:38;;;;;;;;;;;13.60;99.90;;;12.57;61.01;94980.34;10284491;28;1887;-80
2021/05/14 06:41:40;;;;;;;;;;;13.70;99.90;;;12.86;59.97;94971.84;10280107;28;2235;-81
2021/05/14 06:46:44;;;;;;;;;;;13.90;99.90;;;12.82;61.20;94985.16;10284265;28;1849;-81
2021/05/14 06:51:47;;;;;;;;;;;13.90;99.90;;;12.91;59.95;94982.50;10288116;28;2078;-78
2021/05/14 06:56:51;;;;;;;;;;;14.00;99.90;;;13.17;57.41;94990.78;10280538;28;1999;-81
2021/05/14 07:01:53;;;;;;;;;;;14.30;99.90;;;13.53;58.60;94986.06;10295051;28;2043;-79
2021/05/14 07:06:56;;;;;;;;;;;14.50;99.90;;;13.81;56.10;94995.88;10285099;28;2164;-81
2021/05/14 07:11:59;;;;;;;;;;;14.80;99.90;;;13.57;56.30;95001.66;10287911;28;1689;-79
2021/05/14 07:17:01;;;;;;;;;;;14.70;99.90;;;14.01;55.42;94995.28;10283086;28;2128;-80
2021/05/14 07:22:05;;;;;;;;;;;14.80;99.90;;;14.42;55.98;94994.88;10300212;28;1813;-80
2021/05/14 07:27:07;;;;;;;;;;;15.00;99.90;;;15.02;53.85;94991.44;10293281;28;2145;-81
2021/05/14 07:32:10;;;;;;;;;;;15.80;99.90;;;15.16;52.61;94990.44;10303064;28;1869;-79
2021/05/14 07:37:12;;;;;;;;;;;16.10;99.90;;;14.84;54.93;94992.56;10285378;28;2132;-80
2021/05/14 07:42:15;;;;;;;;;;;15.90;99.90;;;14.80;50.06;94988.88;10296172;28;2062;-80
2021/05/14 07:47:17;;;;;;;;;;;15.80;99.90;;;14.86;50.50;94991.09;10300674;28;2105;-80
2021/05/14 07:52:20;;;;;;;;;;;16.00;99.90;;;15.39;49.37;94991.81;10304385;28;1920;-80
2021/05/14 07:57:22;;;;;;;;;;;16.30;99.90;;;15.89;48.03;94985.78;10283163;28;2048;-81
2021/05/14 08:02:25;;;;;;;;;;;16.60;99.90;;;15.37;47.32;94986.72;10300066;28;2073;-81
2021/05/14 08:07:27;;;;;;;;;;;16.40;99.90;;;14.70;51.94;94995.44;10315539;28;2207;-80
2021/05/14 08:12:30;;;;;;;;;;;15.90;99.90;;;15.64;47.15;94984.75;10310900;28;1831;-80
2021/05/14 08:17:51;;;;;;;;;;;16.20;99.90;;;16.47;45.72;94984.16;10308095;28;2004;-81
2021/05/14 08:23:11;;;;;;;;;;;17.00;99.90;;;16.52;47.49;94981.25;10312389;28;2078;-80
2021/05/14 08:28:14;;;;;;;;;;;17.30;99.90;;;15.81;46.24;94984.69;10296273;28;1820;-81
2021/05/14 08:33:16;;;;;;;;;;;17.40;99.20;;;14.25;51.50;94990.28;10293938;28;2065;-80
2021/05/14 08:38:19;;;;;;;;;;;16.00;99.90;;;13.51;54.10;94985.56;10296324;28;1899;-80
2021/05/14 08:43:24;;;;;;;;;;;14.90;99.90;;;13.51;55.05;94988.28;10314065;28;2062;-80
2021/05/14 08:48:26;;;;;;;;;;;14.70;99.90;;;14.71;48.33;94975.38;10295461;28;1752;-80
2021/05/14 08:53:30;;;;;;;;;;;15.20;99.90;;;16.28;45.01;94975.66;10288736;28;2080;-81
2021/05/14 08:58:33;;;;;;;;;;;16.70;99.90;;;16.43;43.50;94972.41;10310643;28;1861;-81
2021/05/14 09:03:36;;;;;;;;;;;17.20;97.90;;;15.87;47.08;94977.97;10319786;28;2093;-82
2021/05/14 09:08:39;;;;;;;;;;;16.90;98.90;;;15.61;47.29;94978.06;10303178;28;1973;-80
2021/05/14 09:13:41;;;;;;;;;;;16.80;98.60;;;15.51;48.37;94975.69;10325538;28;2299;-81
2021/05/14 09:18:45;;;;;;;;;;;16.60;99.90;;;15.20;48.30;94975.13;10319404;28;2058;-82
2021/05/14 09:23:51;;;;;;;;;;;16.30;99.10;;;15.11;45.92;94981.38;10325113;28;2073;-80
2021/05/14 09:28:53;;;;;;;;;;;16.30;95.70;;;14.51;46.91;94971.41;10295837;28;2271;-80
2021/05/14 09:34:01;;;;;;;;;;;15.70;95.60;;;15.68;45.70;94970.25;10274175;28;2142;-80
2021/05/14 09:39:05;;;;;;;;;;;16.40;95.90;;;15.73;45.41;94969.28;10297073;28;2302;-81
2021/05/14 09:44:07;;;;;;;;;;;16.70;94.10;;;15.72;45.03;94969.59;10294506;28;2227;-80
2021/05/14 09:49:10;;;;;;;;;;;16.50;94.20;;;16.72;42.39;94950.63;10280730;28;2026;-80
2021/05/14 09:54:13;;;;;;;;;;;17.00;93.30;;;17.54;40.49;94949.97;10264051;28;2239;-83
2021/05/14 09:59:15;;;;;;;;;;;18.20;88.80;;;18.28;37.93;94945.38;10284429;28;2428;-79
2021/05/14 10:04:18;;;;;;;;;;;19.00;84.90;;;18.02;36.84;94948.47;10285280;28;2224;-82
2021/05/14 10:09:20;;;;;;;;;;;19.30;80.70;;;18.92;36.85;94933.66;10268450;28;2386;-81
2021/05/14 10:14:22;;;;;;;;;;;19.60;80.40;;;18.13;37.25;94933.25;10306990;28;2144;-82
2021/05/14 10:19:25;;;;;;;;;;;19.70;78.10;;;17.13;41.16;94940.84;10299193;28;2150;-78
2021/05/14 10:24:27;;;;;;;;;;;18.50;80.50;;;16.33;41.54;94948.38;10287737;28;2466;-83
2021/05/14 10:29:29;;;;;;;;;;;17.60;81.10;;;16.46;40.88;94950.03;10298494;28;2117;-82
2021/05/14 10:34:31;;;;;;;;;;;17.40;81.90;;;17.17;38.09;94941.75;10291945;28;1965;-79
2021/05/14 10:39:34;;;;;;;;;;;17.70;79.70;;;17.96;38.93;94938.94;10311995;28;1956;-81
2021/05/14 10:44:36;;;;;;;;;;;18.50;80.70;;;18.42;35.14;94934.91;10305549;28;2140;-82
2021/05/14 10:49:39;;;;;;;;;;;19.30;76.10;;;17.79;36.70;94935.31;10329806;28;1809;-83
2021/05/14 10:54:41;;;;;;;;;;;18.80;75.70;;;18.60;36.08;94930.00;10329174;28;1977;-83
2021/05/14 10:59:43;;;;;;;;;;;19.00;75.60;;;18.94;35.25;94927.84;10320979;28;2070;-83
2021/05/14 11:04:45;;;;;;;;;;;19.50;74.40;;;19.08;35.35;94922.78;10288437;28;2045;-82
2021/05/14 11:09:48;;;;;;;;;;;19.70;74.40;;;19.01;35.95;94922.59;10274027;28;2066;-83
2021/05/14 11:14:51;;;;;;;;;;;19.90;72.80;;;19.16;34.37;94925.38;10281253;28;2005;-83
2021/05/14 11:19:53;;;;;;;;;;;20.30;70.90;;;18.96;31.84;94925.56;10283866;28;2137;-81
2021/05/14 11:24:55;;;;;;;;;;;20.00;67.10;;;18.33;34.17;94923.38;10313015;28;1877;-82
2021/05/14 11:29:58;;;;;;;;;;;19.40;68.40;;;18.07;35.06;94929.19;10302867;28;2085;-82
2021/05/14 11:35:03;;;;;;;;;;;19.10;69.30;;;18.01;36.81;94938.72;10303887;28;2183;-79
2021/05/14 11:40:05;;;;;;;;;;;19.00;71.40;;;17.90;37.89;94934.88;10295614;28;2095;-82
2021/05/14 11:45:07;;;;;;;;;;;18.90;72.50;;;17.78;37.71;94938.38;10300760;28;2034;-81
2021/05/14 11:50:10;;;;;;;;;;;18.80;72.40;;;17.75;37.06;94939.84;10301120;28;2042;-83
2021/05/14 11:55:12;;;;;;;;;;;18.70;71.90;;;18.45;36.18;94928.81;10291324;28;2332;-81
2021/05/14 12:00:15;;;;;;;;;;;18.80;71.70;;;18.96;37.68;94920.13;10300132;28;2105;-82
2021/05/14 12:05:17;;;;;;;;;;;19.20;74.30;;;19.38;32.34;94926.72;10283166;28;2105;-81
2021/05/14 12:10:20;;;;;;;;;;;20.00;68.80;;;19.67;31.84;94922.03;10304950;28;2017;-82
2021/05/14 12:15:22;;;;;;;;;;;20.20;66.80;;;20.06;31.44;94922.97;10290451;28;1891;-84
2021/05/14 12:20:24;;;;;;;;;;;20.50;66.30;;;18.79;31.70;94910.34;10293909;28;2110;-81
2021/05/14 12:25:27;;;;;;;;;;;20.30;63.40;;;19.31;32.30;94921.09;10288338;28;2100;-82
2021/05/14 12:30:29;;;;;;;;;;;20.00;64.80;;;20.25;32.30;94917.56;10302276;28;2082;-80
2021/05/14 12:35:31;;;;;;;;;;;20.30;66.40;;;21.28;31.84;94915.38;10301607;28;2021;-80
2021/05/14 12:40:33;;;;;;;;;;;21.40;65.90;;;20.81;30.25;94908.25;10291930;28;2022;-82
2021/05/14 12:45:36;;;;;;;;;;;21.90;62.40;;;20.89;30.96;94909.94;10313794;28;1908;-83
2021/05/14 12:50:38;;;;;;;;;;;21.90;62.20;;;20.89;29.74;94901.75;10305589;28;2110;-82
2021/05/14 12:55:41;;;;;;;;;;;21.90;60.90;;;20.67;30.18;94908.72;10281277;28;2078;-82
2021/05/14 13:00:43;;;;;;;;;;;21.80;60.50;;;20.00;31.08;94910.75;10303195;28;2086;-84
2021/05/14 13:05:45;;;;;;;;;;;21.20;60.30;;;20.61;30.65;94912.09;10300244;28;2221;-83
2021/05/14 13:11:12;;;;;;;;;;;21.40;61.10;;;19.76;31.00;94898.09;10280169;28;2277;-83
2021/05/14 13:16:14;;;;;;;;;;;21.10;59.90;;;19.47;31.82;94898.50;10313156;28;1987;-84
2021/05/14 13:21:17;;;;;;;;;;;20.60;60.90;;;20.51;30.25;94894.34;10291487;28;2124;-82
2021/05/14 13:26:19;;;;;;;;;;;21.10;60.60;;;20.17;31.97;94885.81;10304382;28;2084;-83
2021/05/14 13:31:23;;;;;;;;;;;21.10;61.50;;;19.40;33.27;94889.03;10309981;28;1791;-83
2021/05/14 13:36:25;;;;;;;;;;;20.80;61.60;;;19.74;32.13;94888.69;10306527;28;2062;-80
2021/05/14 13:41:27;;;;;;;;;;;20.60;61.50;;;19.89;31.55;94885.94;10324215;28;1889;-84
2021/05/14 13:46:30;;;;;;;;;;;20.70;61.00;;;20.17;32.06;94885.03;10293061;28;2050;-81
2021/05/14 13:51:41;;;;;;;;;;;21.10;61.30;;;20.24;30.79;94875.03;10316574;28;1992;-82
2021/05/14 13:56:44;;;;;;;;;;;21.30;59.50;;;19.75;32.81;94876.63;10311832;28;2142;-82
2021/05/14 14:01:46;;;;;;;;;;;21.20;60.80;;;17.76;35.82;94870.78;10302987;28;2069;-85
2021/05/14 14:06:48;;;;;;;;;;;19.70;62.10;;;18.27;36.19;94873.84;10307011;28;2145;-83
2021/05/14 14:11:51;;;;;;;;;;;;;;;17.76;36.86;94865.34;10302892;28;2269;-83
2021/05/14 14:16:55;;;;;;;;;;;19.00;64.40;;;17.44;35.87;94867.00;10282741;28;2101;-80
2021/05/14 14:21:57;;;;;;;;;;;18.70;64.20;;;17.63;36.79;94863.72;10299948;28;2013;-80
2021/05/14 14:27:00;;;;;;;;;;;18.60;65.80;;;17.78;35.33;94860.34;10301867;28;2036;-82
2021/05/14 14:32:03;;;;;;;;;;;18.70;64.10;;;17.96;34.53;94850.00;10303515;28;1948;-81
2021/05/14 14:37:05;;;;;;;;;;;18.80;63.50;;;18.30;33.18;94851.38;10296259;28;2218;-83
2021/05/14 14:42:08;;;;;;;;;;;19.00;62.20;;;19.58;30.19;94856.75;10291122;28;1995;-84
2021/05/14 14:47:10;;;;;;;;;;;20.00;60.30;;;19.41;32.77;94852.44;10289578;28;2034;-83
2021/05/14 14:52:13;;;;;;;;;;;20.30;61.20;;;19.84;31.47;94844.50;10303261;28;2009;-82
2021/05/14 14:57:15;;;;;;;;;;;20.60;60.90;;;20.06;32.10;94849.31;10281446;28;2072;-80
2021/05/14 15:02:18;;;;;;;;;;;21.00;60.50;;;19.03;33.76;94860.44;10301284;28;2085;-85
2021/05/14 15:07:20;;;;;;;;;;;20.50;60.80;;;18.12;35.22;94860.16;10296248;28;1794;-83
2021/05/14 15:12:23;;;;;;;;;;;19.70;61.80;;;17.77;36.34;94850.59;10285715;28;1995;-82
2021/05/14 15:17:26;;;;;;;;;;;19.10;63.40;;;17.92;36.82;94851.03;10309275;28;2112;-83
2021/05/14 15:22:28;;;;;;;;;;;19.00;64.40;;;18.15;35.95;94854.84;10281641;28;3923;-86
2021/05/14 15:27:31;;;;;;;;;;;19.10;64.50;;;17.75;36.71;94852.06;10303328;28;1997;-85
2021/05/14 15:32:33;;;;;;;;;;;19.00;64.30;;;17.49;33.88;94850.47;10304544;28;1770;-82
2021/05/14 15:37:35;;;;;;;;;;;18.60;61.80;;;18.55;32.13;94848.59;10317038;28;2104;-84
2021/05/14 15:42:39;;;;;;;;;;;19.00;60.60;;;19.01;30.64;94843.63;10307901;28;2024;-81
2021/05/14 15:47:42;;;;;;;;;;;19.60;59.00;;;19.19;29.53;94842.16;10303716;28;2038;-83
2021/05/14 15:52:44;;;;;;;;;;;19.90;57.50;;;19.57;29.06;94846.19;10298841;28;2281;-85
2021/05/14 15:57:46;;;;;;;;;;;20.30;57.30;;;19.52;29.33;94841.78;10305592;28;2149;-83
2021/05/14 16:02:52;;;;;;;;;;;20.50;56.60;;;18.84;31.27;94837.38;10315860;28;2190;-82
2021/05/14 16:07:55;;;;;;;;;;;20.30;57.50;;;18.17;33.15;94841.69;10280444;28;2197;-83
2021/05/14 16:12:57;;;;;;;;;;;19.50;59.40;;;17.77;33.66;94833.50;10300512;28;2109;-85
2021/05/14 16:18:01;;;;;;;;;;;19.10;60.10;;;17.23;34.93;94837.19;10293865;28;1902;-85
2021/05/14 16:23:04;;;;;;;;;;;18.70;60.90;;;16.88;35.59;94839.53;10304454;28;1798;-88
2021/05/14 16:28:06;;;;;;;;;;;18.30;61.10;;;16.60;36.43;94839.31;10300683;28;2175;-86
2021/05/14 16:33:08;;;;;;;;;;;17.90;62.20;;;16.55;37.76;94836.03;10308044;28;2265;-86
2021/05/14 16:38:11;;;;;;;;;;;17.70;63.80;;;16.42;35.58;94846.03;10286553;28;1989;-85
2021/05/14 16:43:13;;;;;;;;;;;17.60;61.80;;;16.44;35.99;94833.72;10294054;28;2080;-87
2021/05/14 16:48:15;;;;;;;;;;;17.60;62.30;;;16.36;37.10;94839.22;10306555;28;2101;-86
2021/05/14 16:53:18;;;;;;;;;;;17.50;63.20;;;16.42;36.50;94835.19;10308747;28;2138;-88
2021/05/14 16:58:20;;;;;;;;;;;17.50;63.40;;;16.15;37.27;94847.34;10291844;28;2171;-85
2021/05/14 17:03:22;;;;;;;;;;;17.40;63.70;;;15.98;38.50;94848.31;10301534;28;2070;-84
2021/05/14 17:08:25;;;;;;;;;;;17.20;64.80;;;15.81;38.55;94843.00;10317351;28;1952;-85
2021/05/14 17:13:27;;;;;;;;;;;17.10;65.30;;;15.96;38.70;94850.53;10326031;28;2267;-83
2021/05/14 17:18:30;;;;;;;;;;;17.00;65.70;;;15.83;39.32;94844.25;10334412;28;1895;-87
2021/05/14 17:23:32;;;;;;;;;;;16.90;66.10;;;15.74;39.86;94856.28;10314557;28;2002;-87
2021/05/14 17:28:34;;;;;;;;;;;16.90;66.40;;;15.71;41.08;94859.63;10301791;28;1883;-86
2021/05/14 17:33:37;;;;;;;;;;;16.80;67.90;;;15.39;41.94;94859.91;10330557;28;2155;-87
2021/05/14 17:38:39;;;;;;;;;;;16.60;68.40;;;15.11;43.21;94864.97;10311818;28;2138;-84
2021/05/14 17:43:43;;;;;;;;;;;16.40;69.70;;;14.87;42.20;94867.44;10287485;28;2015;-87
2021/05/14 17:48:46;;;;;;;;;;;16.20;69.10;;;14.82;43.21;94873.00;10288903;28;2327;-85
2021/05/14 17:53:49;;;;;;;;;;;16.00;69.80;;;14.78;41.83;94877.50;10319042;28;2225;-86
2021/05/14 17:58:51;;;;;;;;;;;15.90;69.40;;;14.62;41.93;94874.50;10328797;28;2403;-86
2021/05/14 18:03:53;;;;;;;;;;;15.80;68.90;;;14.70;41.86;94873.69;10322639;28;2295;-85
2021/05/14 18:08:56;;;;;;;;;;;15.80;69.00;;;14.66;41.83;94871.94;10292428;28;1924;-83
2021/05/14 18:13:59;;;;;;;;;;;15.70;69.10;;;14.64;42.19;94876.91;10306861;28;2096;-84
2021/05/14 18:19:33;;;;;;;;;;;15.70;69.40;;;14.69;45.34;94884.81;10331575;28;2084;-84
2021/05/14 18:24:28;;;;;;;;;;;15.70;72.00;;;14.60;46.33;94888.34;10311676;28;3389;-85
2021/05/14 18:29:30;;;;;;;;;;;15.70;73.70;;;14.34;48.39;94895.66;10295747;28;2453;-83
2021/05/14 18:34:32;;;;;;;;;;;15.50;75.20;;;14.16;48.60;94899.47;10318195;28;1928;-84
2021/05/14 18:39:35;;;;;;;;;;;15.40;76.10;;;13.87;50.28;94898.16;10309170;28;2099;-86
2021/05/14 18:44:37;;;;;;;;;;;15.20;77.00;;;13.71;49.79;94902.41;10296161;28;2047;-86
2021/05/14 18:49:39;;;;;;;;;;;14.90;77.10;;;13.58;50.38;94906.81;10302309;28;2140;-85
2021/05/14 18:54:42;;;;;;;;;;;14.80;78.50;;;13.49;51.37;94914.91;10306044;28;2414;-86
2021/05/14 18:59:45;;;;;;;;;;;14.70;78.90;;;13.32;53.25;94922.94;10315543;28;2137;-84
2021/05/14 19:04:47;;;;;;;;;;;14.60;80.80;;;13.12;53.86;94931.53;10308779;28;1881;-85
2021/05/14 19:09:49;;;;;;;;;;;14.40;81.60;;;12.93;55.14;94937.94;10302346;28;2083;-86
2021/05/14 19:14:52;;;;;;;;;;;14.20;82.50;;;12.85;55.61;94938.69;10312706;28;2116;-87
2021/05/14 19:19:54;;;;;;;;;;;14.10;83.50;;;12.89;55.12;94950.44;10298969;28;1891;-86
2021/05/14 19:25:11;;;;;;;;;;;14.00;83.90;;;12.98;54.43;94953.22;10332803;28;2096;-86
2021/05/14 19:35:59;;;;;;;;;;;14.10;85.00;;;12.99;57.68;94969.09;10319869;28;1879;-85
2021/05/14 19:46:36;;;;;;;;;;;14.10;87.80;;;12.59;58.74;94978.13;10314221;28;3371;-85
2021/05/14 19:51:39;;;;;;;;;;;13.90;88.00;;;12.34;58.23;94974.94;10295410;28;2025;-86
2021/05/14 19:56:42;;;;;;;;;;;13.70;87.60;;;12.13;59.32;94981.88;10295996;28;2014;-86
2021/05/14 20:01:44;;;;;;;;;;;13.50;88.50;;;11.96;60.35;94998.66;10293173;28;2108;-86
2021/05/14 20:06:47;;;;;;;;;;;13.30;90.00;;;11.85;60.14;94998.06;10305835;28;2199;-87
2021/05/14 20:11:51;;;;;;;;;;;13.10;89.90;;;11.81;63.18;95005.13;10306177;28;2038;-87
2021/05/14 20:16:54;;;;;;;;;;;13.00;92.40;;;11.64;64.28;95002.19;10286048;28;2032;-85
2021/05/14 20:21:56;;;;;;;;;;;12.90;94.70;;;11.53;65.21;95000.81;10300206;28;1911;-83
2021/05/14 20:27:00;;;;;;;;;;;12.80;95.30;;;11.37;66.77;95003.78;10300357;28;2081;-82
2021/05/14 20:32:02;;;;;;;;;;;12.70;97.30;;;11.27;67.41;95017.44;10281650;28;2098;-82
2021/05/14 20:37:07;;;;;;;;;;;12.60;98.30;;;11.59;67.49;95048.88;10299976;28;1983;-82
2021/05/14 20:42:09;;;;;;;;;;;12.60;99.90;;;11.72;64.55;95066.16;10290386;28;2075;-84
2021/05/14 20:47:12;;;;;;;;;;;12.70;98.60;;;11.61;63.53;95067.41;10308176;28;2255;-82
2021/05/14 20:52:14;;;;;;;;;;;12.70;97.80;;;11.50;62.75;95071.38;10291801;28;2097;-82
2021/05/14 20:57:36;;;;;;;;;;;12.50;97.10;;;11.41;63.23;95067.78;10279078;28;2175;-83
2021/05/14 21:02:39;;;;;;;;;;;12.40;97.60;;;11.08;66.08;95071.28;10294846;28;2084;-82
2021/05/14 21:07:41;;;;;;;;;;;12.20;99.90;;;10.66;70.61;95077.56;10299634;28;2030;-84
2021/05/14 21:12:43;;;;;;;;;;;11.90;99.90;;;10.23;71.99;95066.84;10298031;28;2164;-84
2021/05/14 21:17:47;;;;;;;;;;;11.50;99.90;;;10.16;71.39;95066.34;10283279;28;2720;-82
2021/05/14 21:22:49;;;;;;;;;;;11.30;99.90;;;9.96;71.50;95078.16;10303754;28;2541;-82
2021/05/14 21:27:52;;;;;;;;;;;11.10;99.90;;;9.86;71.58;95070.22;10299725;28;2093;-84
2021/05/14 21:32:54;;;;;;;;;;;11.00;99.90;;;9.73;72.75;95070.88;10308659;28;2002;-85
2021/05/14 21:37:55;;;;;;;;;;;10.90;99.90;;;9.88;70.52;95067.25;10309147;28;2054;-81
2021/05/14 21:42:56;;;;;;;;;;;10.90;99.90;;;9.93;70.41;95065.31;10303441;28;1920;-82
2021/05/14 21:47:57;;;;;;;;;;;10.90;99.90;;;10.00;69.23;95081.88;10282674;28;2049;-80
2021/05/14 21:52:58;;;;;;;;;;;11.00;99.90;;;10.17;66.66;95077.91;10297631;28;2066;-83
2021/05/14 21:57:59;;;;;;;;;;;11.10;99.90;;;10.21;66.58;95073.56;10286674;28;2046;-82
2021/05/14 22:03:01;;;;;;;;;;;11.20;99.90;;;10.37;65.95;95071.50;10303027;28;2280;-81
2021/05/14 22:08:02;;;;;;;;;;;11.30;99.90;;;10.45;65.53;95070.88;10291465;28;2086;-83
2021/05/14 22:13:03;;;;;;;;;;;11.40;99.90;;;10.53;65.57;95073.69;10290081;28;1967;-79
2021/05/14 22:18:10;;;;;;;;;;;11.50;99.90;;;10.58;67.23;95088.16;10318380;28;2118;-81
2021/05/14 22:23:11;;;;;;;;;;;11.50;99.90;;;10.70;66.22;95113.53;10300253;28;2081;-82
2021/05/14 22:28:12;;;;;;;;;;;11.60;99.90;;;10.70;65.73;95113.53;10282317;28;2085;-81
2021/05/14 22:33:13;;;;;;;;;;;11.60;99.90;;;10.72;65.80;95116.72;10291716;28;2101;-81
2021/05/14 22:38:14;;;;;;;;;;;11.70;99.90;;;10.70;65.61;95116.22;10284296;28;2110;-81
2021/05/14 22:43:16;;;;;;;;;;;11.70;99.90;;;10.69;65.65;95121.88;10306203;28;2065;-81
2021/05/14 22:48:17;;;;;;;;;;;11.70;99.90;;;10.59;66.73;95141.63;10318363;28;2140;-79
2021/05/14 22:53:18;;;;;;;;;;;11.70;99.90;;;10.59;67.15;95149.69;10315373;28;2427;-80
2021/05/14 22:58:19;;;;;;;;;;;11.60;99.90;;;10.63;67.29;95156.09;10311551;28;2107;-81
2021/05/14 23:03:20;;;;;;;;;;;11.60;99.90;;;10.58;68.31;95158.84;10310152;28;2046;-82
2021/05/14 23:08:21;;;;;;;;;;;11.60;99.90;;;10.60;68.58;95170.09;10309077;28;2195;-80
2021/05/14 23:13:22;;;;;;;;;;;11.60;99.90;;;10.61;68.48;95169.00;10307141;28;2261;-82
2021/05/14 23:18:23;;;;;;;;;;;11.70;99.90;;;10.55;69.09;95162.09;10297698;28;2101;-81
2021/05/14 23:23:25;;;;;;;;;;;11.60;99.90;;;10.56;68.89;95158.34;10302603;28;2066;-82
2021/05/14 23:28:26;;;;;;;;;;;11.50;99.90;;;10.45;69.29;95159.53;10309785;28;2160;-81
2021/05/14 23:33:27;;;;;;;;;;;11.50;99.90;;;10.33;69.86;95169.88;10283210;28;2150;-81